sensor_id;sensor_type;location;lat;lon;timestamp;temperature;humidity
16116;DHT22;8162;47.104;15.432;2023-04-25T13:34:30;22.70;31.30
16116;DHT22;8162;47.104;15.432;2023-04-25T13:37:31;23.30;30.00
16116;DHT22;8162;47.104;15.432;2023-04-25T13:40:32;24.60;29.00
16116;DHT22;8162;47.104;15.432;2023-04-25T13:43:33;25.00;29.70
16116;DHT22;8162;47.104;15.432;2023-04-25T13:46:34;25.50;29.90
16116;DHT22;8162;47.104;15.432;2023-04-25T13:49:35;25.60;30.50
16116;DHT22;8162;47.104;15.432;2023-04-25T13:52:35;25.80;29.60
16116;DHT22;8162;47.104;15.432;2023-04-25T13:55:36;26.10;31.70
16116;DHT22;8162;47.104;15.432;2023-04-25T13:58:37;25.30;31.60
16116;DHT22;8162;47.104;15.432;2023-04-25T14:01:38;23.60;34.40
16116;DHT22;8162;47.104;15.432;2023-04-25T14:04:39;22.10;35.00
16116;DHT22;8162;47.104;15.432;2023-04-25T14:07:40;21.60;34.20
16116;DHT22;8162;47.104;15.432;2023-04-25T14:10:40;21.50;33.40
16116;DHT22;8162;47.104;15.432;2023-04-25T14:13:41;21.10;33.40
16116;DHT22;8162;47.104;15.432;2023-04-25T14:16:42;20.90;35.70
16116;DHT22;8162;47.104;15.432;2023-04-25T14:19:42;20.60;35.70
16116;DHT22;8162;47.104;15.432;2023-04-25T14:22:45;20.10;38.20
16116;DHT22;8162;47.104;15.432;2023-04-25T14:25:46;19.80;34.60
16116;DHT22;8162;47.104;15.432;2023-04-25T14:28:48;19.20;36.60
16116;DHT22;8162;47.104;15.432;2023-04-25T14:31:48;18.50;37.30
16116;DHT22;8162;47.104;15.432;2023-04-25T14:34:49;18.20;38.80
16116;DHT22;8162;47.104;15.432;2023-04-25T14:37:50;17.80;37.20
16116;DHT22;8162;47.104;15.432;2023-04-25T14:40:51;17.60;40.40
16116;DHT22;8162;47.104;15.432;2023-04-25T14:43:52;17.50;38.00
16116;DHT22;8162;47.104;15.432;2023-04-25T14:46:53;17.40;38.00
16116;DHT22;8162;47.104;15.432;2023-04-25T14:49:54;17.00;37.60
16116;DHT22;8162;47.104;15.432;2023-04-25T14:52:55;17.00;38.00
16116;DHT22;8162;47.104;15.432;2023-04-25T14:55:59;17.20;38.20
16116;DHT22;8162;47.104;15.432;2023-04-25T14:58:59;17.50;36.50
16116;DHT22;8162;47.104;15.432;2023-04-25T15:02:00;17.80;37.10
16116;DHT22;8162;47.104;15.432;2023-04-25T15:05:01;18.40;38.70
16116;DHT22;8162;47.104;15.432;2023-04-25T15:08:02;19.50;37.00
16116;DHT22;8162;47.104;15.432;2023-04-25T15:11:03;20.80;35.00
16116;DHT22;8162;47.104;15.432;2023-04-25T15:14:04;21.90;32.90
16116;DHT22;8162;47.104;15.432;2023-04-25T15:17:04;22.10;29.40
16116;DHT22;8162;47.104;15.432;2023-04-25T15:20:07;21.80;30.20
16116;DHT22;8162;47.104;15.432;2023-04-25T15:23:08;21.50;29.00
16116;DHT22;8162;47.104;15.432;2023-04-25T15:26:08;21.00;30.00
16116;DHT22;8162;47.104;15.432;2023-04-25T15:29:09;20.80;29.40
16116;DHT22;8162;47.104;15.432;2023-04-25T15:32:10;20.30;30.60
16116;DHT22;8162;47.104;15.432;2023-04-25T15:35:12;19.70;31.30
16116;DHT22;8162;47.104;15.432;2023-04-25T15:38:12;19.20;30.20
16116;DHT22;8162;47.104;15.432;2023-04-25T15:41:13;18.40;32.00
16116;DHT22;8162;47.104;15.432;2023-04-25T15:44:14;18.10;32.80
16116;DHT22;8162;47.104;15.432;2023-04-25T15:47:14;17.90;33.70
16116;DHT22;8162;47.104;15.432;2023-04-25T15:50:15;17.60;33.60
16116;DHT22;8162;47.104;15.432;2023-04-25T15:53:16;17.20;34.90
16116;DHT22;8162;47.104;15.432;2023-04-25T15:56:16;17.10;33.90
16116;DHT22;8162;47.104;15.432;2023-04-25T15:59:17;17.30;34.40
16116;DHT22;8162;47.104;15.432;2023-04-25T16:02:18;17.20;34.00
16116;DHT22;8162;47.104;15.432;2023-04-25T16:05:19;17.50;34.50
16116;DHT22;8162;47.104;15.432;2023-04-25T16:08:20;17.80;35.60
16116;DHT22;8162;47.104;15.432;2023-04-25T16:11:20;18.20;33.40
16116;DHT22;8162;47.104;15.432;2023-04-25T16:14:22;18.40;32.90
16116;DHT22;8162;47.104;15.432;2023-04-25T16:17:23;18.50;32.30
16116;DHT22;8162;47.104;15.432;2023-04-25T16:20:24;18.60;32.50
16116;DHT22;8162;47.104;15.432;2023-04-25T16:23:25;18.70;32.70
16116;DHT22;8162;47.104;15.432;2023-04-25T16:26:26;18.60;33.40
16116;DHT22;8162;47.104;15.432;2023-04-25T16:29:27;18.60;32.30
16116;DHT22;8162;47.104;15.432;2023-04-25T16:32:27;18.40;33.00
16116;DHT22;8162;47.104;15.432;2023-04-25T16:35:28;18.30;32.40
16116;DHT22;8162;47.104;15.432;2023-04-25T16:38:32;18.10;32.40
16116;DHT22;8162;47.104;15.432;2023-04-25T16:41:32;18.00;33.60
16116;DHT22;8162;47.104;15.432;2023-04-25T16:44:34;18.00;33.30
16116;DHT22;8162;47.104;15.432;2023-04-25T16:47:34;18.00;31.70
16116;DHT22;8162;47.104;15.432;2023-04-25T16:50:35;18.00;33.10
16116;DHT22;8162;47.104;15.432;2023-04-25T16:53:36;17.80;32.30
16116;DHT22;8162;47.104;15.432;2023-04-25T16:56:37;17.80;31.80
16116;DHT22;8162;47.104;15.432;2023-04-25T16:59:38;17.60;33.00
16116;DHT22;8162;47.104;15.432;2023-04-25T17:02:38;17.60;33.50
16116;DHT22;8162;47.104;15.432;2023-04-25T17:05:39;17.50;31.70
16116;DHT22;8162;47.104;15.432;2023-04-25T17:08:40;17.10;33.60
16116;DHT22;8162;47.104;15.432;2023-04-25T17:11:41;17.00;33.60
16116;DHT22;8162;47.104;15.432;2023-04-25T17:14:42;16.70;33.70
16116;DHT22;8162;47.104;15.432;2023-04-25T17:17:43;16.30;34.40
16116;DHT22;8162;47.104;15.432;2023-04-25T17:20:44;15.90;36.00
16116;DHT22;8162;47.104;15.432;2023-04-25T17:23:45;15.50;36.10
16116;DHT22;8162;47.104;15.432;2023-04-25T17:26:46;15.10;37.50
16116;DHT22;8162;47.104;15.432;2023-04-25T17:29:47;14.90;38.70
16116;DHT22;8162;47.104;15.432;2023-04-25T17:32:48;14.90;38.80
16116;DHT22;8162;47.104;15.432;2023-04-25T17:35:48;14.80;39.80
16116;DHT22;8162;47.104;15.432;2023-04-25T17:38:49;14.50;39.00
16116;DHT22;8162;47.104;15.432;2023-04-25T17:41:50;14.20;39.20
16116;DHT22;8162;47.104;15.432;2023-04-25T17:44:51;13.90;39.90
16116;DHT22;8162;47.104;15.432;2023-04-25T17:47:54;13.70;39.60
16116;DHT22;8162;47.104;15.432;2023-04-25T17:50:54;24.00;50.00
16116;DHT22;8162;47.104;15.432;2023-04-25T17:53:56;13.20;40.50
16116;DHT22;8162;47.104;15.432;2023-04-25T17:56:56;13.00;40.80
16116;DHT22;8162;47.104;15.432;2023-04-25T17:59:57;12.90;42.20
16116;DHT22;8162;47.104;15.432;2023-04-25T18:02:58;12.60;42.00
16116;DHT22;8162;47.104;15.432;2023-04-25T18:05:59;12.50;42.50
16116;DHT22;8162;47.104;15.432;2023-04-25T18:09:01;12.30;43.00
16116;DHT22;8162;47.104;15.432;2023-04-25T18:12:03;12.30;44.40
16116;DHT22;8162;47.104;15.432;2023-04-25T18:15:04;11.90;44.00
16116;DHT22;8162;47.104;15.432;2023-04-25T18:18:06;11.70;44.80
16116;DHT22;8162;47.104;15.432;2023-04-25T18:21:14;11.70;45.10
16116;DHT22;8162;47.104;15.432;2023-04-25T18:24:15;11.50;45.80
16116;DHT22;8162;47.104;15.432;2023-04-25T18:27:17;11.40;46.00
16116;DHT22;8162;47.104;15.432;2023-04-25T18:30:18;11.30;45.60
16116;DHT22;8162;47.104;15.432;2023-04-25T18:33:19;11.20;46.50
16116;DHT22;8162;47.104;15.432;2023-04-25T18:36:21;11.10;48.50
16116;DHT22;8162;47.104;15.432;2023-04-25T18:39:22;11.00;49.40
16116;DHT22;8162;47.104;15.432;2023-04-25T18:42:24;10.80;51.00
16116;DHT22;8162;47.104;15.432;2023-04-25T18:45:25;10.70;51.90
16116;DHT22;8162;47.104;15.432;2023-04-25T18:48:26;10.60;50.70
16116;DHT22;8162;47.104;15.432;2023-04-25T18:51:28;10.50;50.00
16116;DHT22;8162;47.104;15.432;2023-04-25T18:54:30;10.50;49.80
16116;DHT22;8162;47.104;15.432;2023-04-25T18:57:31;10.60;49.90
16116;DHT22;8162;47.104;15.432;2023-04-25T19:00:32;10.60;49.70
16116;DHT22;8162;47.104;15.432;2023-04-25T19:03:36;10.50;49.30
16116;DHT22;8162;47.104;15.432;2023-04-25T19:06:37;10.50;49.00
16116;DHT22;8162;47.104;15.432;2023-04-25T19:09:38;10.50;49.10
16116;DHT22;8162;47.104;15.432;2023-04-25T19:12:39;10.50;49.10
16116;DHT22;8162;47.104;15.432;2023-04-25T19:15:40;10.50;50.10
16116;DHT22;8162;47.104;15.432;2023-04-25T19:18:41;10.40;51.10
16116;DHT22;8162;47.104;15.432;2023-04-25T19:21:42;10.40;50.80
16116;DHT22;8162;47.104;15.432;2023-04-25T19:24:42;10.40;52.10
16116;DHT22;8162;47.104;15.432;2023-04-25T19:27:45;10.30;52.90
16116;DHT22;8162;47.104;15.432;2023-04-25T19:30:45;10.30;54.90
16116;DHT22;8162;47.104;15.432;2023-04-25T19:33:46;10.20;55.20
16116;DHT22;8162;47.104;15.432;2023-04-25T19:36:47;10.10;55.60
16116;DHT22;8162;47.104;15.432;2023-04-25T19:39:52;10.00;56.30
16116;DHT22;8162;47.104;15.432;2023-04-25T19:42:52;10.00;56.40
16116;DHT22;8162;47.104;15.432;2023-04-25T19:45:53;9.80;56.80
16116;DHT22;8162;47.104;15.432;2023-04-25T19:48:54;9.70;56.40
16116;DHT22;8162;47.104;15.432;2023-04-25T19:51:55;9.70;57.20
16116;DHT22;8162;47.104;15.432;2023-04-25T19:54:56;9.70;58.00
16116;DHT22;8162;47.104;15.432;2023-04-25T19:58:01;9.50;59.10
16116;DHT22;8162;47.104;15.432;2023-04-25T20:01:02;9.40;59.60
16116;DHT22;8162;47.104;15.432;2023-04-25T20:04:03;9.20;60.70
16116;DHT22;8162;47.104;15.432;2023-04-25T20:07:05;9.20;61.30
16116;DHT22;8162;47.104;15.432;2023-04-25T20:10:08;9.00;61.90
16116;DHT22;8162;47.104;15.432;2023-04-25T20:13:10;9.00;62.70
16116;DHT22;8162;47.104;15.432;2023-04-25T20:16:11;8.90;62.40
16116;DHT22;8162;47.104;15.432;2023-04-25T20:19:12;8.80;63.40
16116;DHT22;8162;47.104;15.432;2023-04-25T20:22:12;24.00;50.00
16116;DHT22;8162;47.104;15.432;2023-04-25T20:25:13;8.60;64.00
16116;DHT22;8162;47.104;15.432;2023-04-25T20:28:14;8.50;64.40
16116;DHT22;8162;47.104;15.432;2023-04-25T20:31:15;8.50;64.40
16116;DHT22;8162;47.104;15.432;2023-04-25T20:34:18;8.40;64.60
16116;DHT22;8162;47.104;15.432;2023-04-25T20:37:19;8.30;65.70
16116;DHT22;8162;47.104;15.432;2023-04-25T20:40:20;8.20;64.60
16116;DHT22;8162;47.104;15.432;2023-04-25T20:43:21;8.10;65.00
16116;DHT22;8162;47.104;15.432;2023-04-25T20:46:22;8.10;65.40
16116;DHT22;8162;47.104;15.432;2023-04-25T20:49:24;8.00;66.20
16116;DHT22;8162;47.104;15.432;2023-04-25T20:52:24;7.90;66.60
16116;DHT22;8162;47.104;15.432;2023-04-25T20:55:25;7.80;67.60
16116;DHT22;8162;47.104;15.432;2023-04-25T20:58:26;7.80;69.40
16116;DHT22;8162;47.104;15.432;2023-04-25T21:01:28;7.60;69.60
16116;DHT22;8162;47.104;15.432;2023-04-25T21:04:28;7.60;69.90
16116;DHT22;8162;47.104;15.432;2023-04-25T21:07:29;7.50;70.20
16116;DHT22;8162;47.104;15.432;2023-04-25T21:10:30;7.50;70.60
16116;DHT22;8162;47.104;15.432;2023-04-25T21:13:31;7.40;71.10
16116;DHT22;8162;47.104;15.432;2023-04-25T21:16:32;7.30;71.00
16116;DHT22;8162;47.104;15.432;2023-04-25T21:19:34;7.30;71.80
16116;DHT22;8162;47.104;15.432;2023-04-25T21:22:35;7.30;71.40
16116;DHT22;8162;47.104;15.432;2023-04-25T21:25:36;7.20;71.40
16116;DHT22;8162;47.104;15.432;2023-04-25T21:28:36;7.20;71.70
16116;DHT22;8162;47.104;15.432;2023-04-25T21:31:37;7.20;71.60
16116;DHT22;8162;47.104;15.432;2023-04-25T21:34:38;7.10;72.40
16116;DHT22;8162;47.104;15.432;2023-04-25T21:37:39;7.00;72.70
16116;DHT22;8162;47.104;15.432;2023-04-25T21:40:40;7.00;71.90
16116;DHT22;8162;47.104;15.432;2023-04-25T21:43:41;7.00;72.20
16116;DHT22;8162;47.104;15.432;2023-04-25T21:46:42;7.00;74.00
16116;DHT22;8162;47.104;15.432;2023-04-25T21:49:42;7.00;73.80
16116;DHT22;8162;47.104;15.432;2023-04-25T21:52:43;7.00;73.40
16116;DHT22;8162;47.104;15.432;2023-04-25T21:55:44;7.00;73.60
16116;DHT22;8162;47.104;15.432;2023-04-25T21:58:44;6.90;72.80
16116;DHT22;8162;47.104;15.432;2023-04-25T22:01:45;6.80;73.50
16116;DHT22;8162;47.104;15.432;2023-04-25T22:04:47;6.80;74.10
16116;DHT22;8162;47.104;15.432;2023-04-25T22:07:49;6.80;74.60
16116;DHT22;8162;47.104;15.432;2023-04-25T22:10:51;6.70;74.70
16116;DHT22;8162;47.104;15.432;2023-04-25T22:13:52;6.70;74.90
16116;DHT22;8162;47.104;15.432;2023-04-25T22:16:53;6.70;75.60
16116;DHT22;8162;47.104;15.432;2023-04-25T22:19:55;6.70;75.20
16116;DHT22;8162;47.104;15.432;2023-04-25T22:22:56;6.70;75.10
16116;DHT22;8162;47.104;15.432;2023-04-25T22:25:56;6.80;75.50
16116;DHT22;8162;47.104;15.432;2023-04-25T22:28:57;6.80;75.20
16116;DHT22;8162;47.104;15.432;2023-04-25T22:31:57;6.80;75.30
16116;DHT22;8162;47.104;15.432;2023-04-25T22:34:58;6.70;75.90
16116;DHT22;8162;47.104;15.432;2023-04-25T22:37:59;6.70;76.20
16116;DHT22;8162;47.104;15.432;2023-04-25T22:40:59;6.60;76.00
16116;DHT22;8162;47.104;15.432;2023-04-25T22:44:00;6.60;75.90
16116;DHT22;8162;47.104;15.432;2023-04-25T22:47:01;6.50;76.20
16116;DHT22;8162;47.104;15.432;2023-04-25T22:50:05;6.40;76.50
16116;DHT22;8162;47.104;15.432;2023-04-25T22:53:08;6.40;76.60
16116;DHT22;8162;47.104;15.432;2023-04-25T22:56:11;6.30;76.80
16116;DHT22;8162;47.104;15.432;2023-04-25T22:59:11;6.30;76.90
16116;DHT22;8162;47.104;15.432;2023-04-25T23:02:12;6.30;77.00
16116;DHT22;8162;47.104;15.432;2023-04-25T23:05:14;6.20;76.40
16116;DHT22;8162;47.104;15.432;2023-04-25T23:08:14;6.20;76.70
16116;DHT22;8162;47.104;15.432;2023-04-25T23:11:16;6.10;77.00
16116;DHT22;8162;47.104;15.432;2023-04-25T23:14:17;6.10;77.30
16116;DHT22;8162;47.104;15.432;2023-04-25T23:17:18;6.10;77.20
16116;DHT22;8162;47.104;15.432;2023-04-25T23:20:19;6.00;77.20
16116;DHT22;8162;47.104;15.432;2023-04-25T23:23:20;6.00;77.80
16116;DHT22;8162;47.104;15.432;2023-04-25T23:26:21;6.00;77.60
16116;DHT22;8162;47.104;15.432;2023-04-25T23:29:22;6.00;78.00
16116;DHT22;8162;47.104;15.432;2023-04-25T23:32:23;6.00;78.50
16116;DHT22;8162;47.104;15.432;2023-04-25T23:35:25;6.00;78.80
16116;DHT22;8162;47.104;15.432;2023-04-25T23:38:27;6.10;78.70
16116;DHT22;8162;47.104;15.432;2023-04-25T23:41:27;6.10;79.50
16116;DHT22;8162;47.104;15.432;2023-04-25T23:44:28;6.10;78.70
16116;DHT22;8162;47.104;15.432;2023-04-25T23:47:29;6.10;78.10
16116;DHT22;8162;47.104;15.432;2023-04-25T23:50:30;6.10;78.10
16116;DHT22;8162;47.104;15.432;2023-04-25T23:53:31;6.00;77.90
16116;DHT22;8162;47.104;15.432;2023-04-25T23:56:32;5.90;78.50
16116;DHT22;8162;47.104;15.432;2023-04-25T23:59:33;5.90;78.70
